createdAt,value
2017-09-12T00:00:37.455Z,-4.14
2017-09-12T00:01:31.675Z,-4.14
2017-09-12T00:02:26.296Z,-4.15
2017-09-12T00:03:27.366Z,-4.15
2017-09-12T00:04:16.395Z,-4.14
2017-09-12T00:05:11.542Z,-4.14
2017-09-12T00:06:11.763Z,-4.14
2017-09-12T00:07:00.837Z,-4.14
2017-09-12T00:07:54.588Z,-4.14
2017-09-12T00:08:49.815Z,-4.15
2017-09-12T00:09:43.643Z,-4.14
2017-09-12T00:10:37.744Z,-4.15
2017-09-12T00:11:31.958Z,-4.15
2017-09-12T00:12:26.938Z,-4.15
2017-09-12T00:13:26.681Z,-4.15
2017-09-12T00:14:21.816Z,-4.15
2017-09-12T00:15:15.926Z,-4.14
2017-09-12T00:16:15.982Z,-4.14
2017-09-12T00:17:04.235Z,-4.14
2017-09-12T00:18:05.222Z,-4.14
2017-09-12T00:18:54.045Z,-4.14
2017-09-12T00:19:49.050Z,-4.14
2017-09-12T00:20:37.125Z,-4.14
2017-09-12T00:21:25.605Z,-4.14
2017-09-12T00:22:19.293Z,-4.14
2017-09-12T00:23:08.412Z,-4.14
2017-09-12T00:24:02.273Z,-4.14
2017-09-12T00:24:57.375Z,-4.14
2017-09-12T00:25:57.321Z,-4.14
2017-09-12T00:26:52.335Z,-4.14
2017-09-12T00:27:46.817Z,-4.14
2017-09-12T00:28:41.438Z,-4.14
2017-09-12T00:29:29.885Z,-4.14
2017-09-12T00:30:24.523Z,-4.15
2017-09-12T00:31:25.878Z,-4.14
2017-09-12T00:32:19.590Z,-4.14
2017-09-12T00:33:08.689Z,-4.14
2017-09-12T00:34:03.903Z,-4.14
2017-09-12T00:34:57.860Z,-4.14
2017-09-12T00:35:51.954Z,-4.14
2017-09-12T00:36:47.170Z,-4.14
2017-09-12T00:37:40.818Z,-4.14
2017-09-12T00:38:35.963Z,-4.14
2017-09-12T00:39:30.812Z,-4.14
2017-09-12T00:40:19.883Z,-4.14
2017-09-12T00:41:07.955Z,-4.14
2017-09-12T00:42:08.343Z,-4.14
2017-09-12T00:43:03.032Z,-4.14
2017-09-12T00:44:03.108Z,-4.14
2017-09-12T00:44:57.415Z,-4.14
2017-09-12T00:45:51.321Z,-4.14
2017-09-12T00:46:45.442Z,-4.14
2017-09-12T00:47:40.193Z,-4.14
2017-09-12T00:48:34.413Z,-4.14
2017-09-12T00:49:23.387Z,-4.14
2017-09-12T00:50:17.477Z,-4.14
2017-09-12T00:51:11.502Z,-4.14
2017-09-12T00:52:05.578Z,-4.14
2017-09-12T00:53:00.561Z,-4.14
2017-09-12T00:53:54.420Z,-4.14
2017-09-12T00:54:54.652Z,-4.14
2017-09-12T00:55:49.582Z,-4.14
2017-09-12T00:56:43.893Z,-4.14
2017-09-12T00:57:38.671Z,-4.14
2017-09-12T00:58:33.788Z,-4.14
2017-09-12T00:59:27.701Z,-4.14
2017-09-12T01:00:22.058Z,-4.14
2017-09-12T01:01:16.760Z,-4.14
2017-09-12T01:02:11.093Z,-4.14
2017-09-12T01:03:05.152Z,-4.14
2017-09-12T01:04:00.225Z,-4.14
2017-09-12T01:04:55.239Z,-4.14
2017-09-12T01:05:44.065Z,-4.14
2017-09-12T01:06:32.266Z,-4.14
2017-09-12T01:07:27.347Z,-4.14
2017-09-12T01:08:21.398Z,-4.14
2017-09-12T01:09:10.238Z,-4.14
2017-09-12T01:10:10.440Z,-4.14
2017-09-12T01:11:04.132Z,-4.14
2017-09-12T01:12:04.468Z,-4.14
2017-09-12T01:12:59.227Z,-4.14
2017-09-12T01:13:53.571Z,-4.14
2017-09-12T01:14:48.521Z,-4.14
2017-09-12T01:15:42.372Z,-4.14
2017-09-12T01:16:42.707Z,-4.14
2017-09-12T01:17:36.465Z,-4.14
2017-09-12T01:18:31.532Z,-4.14
2017-09-12T01:19:19.563Z,-4.14
2017-09-12T01:20:19.881Z,-4.14
2017-09-12T01:21:14.631Z,-4.14
2017-09-12T01:22:03.860Z,-4.14
2017-09-12T01:22:58.765Z,-4.14
2017-09-12T01:23:52.700Z,-4.14
2017-09-12T01:24:47.814Z,-4.14
2017-09-12T01:25:41.777Z,-4.14
2017-09-12T01:26:37.103Z,-4.14
2017-09-12T01:27:37.921Z,-4.14
2017-09-12T01:28:37.937Z,-4.14
2017-09-12T01:29:32.902Z,-4.14
2017-09-12T01:30:28.165Z,-4.14
2017-09-12T01:31:22.394Z,-4.14
2017-09-12T01:32:16.028Z,-4.14
2017-09-12T01:33:11.413Z,-4.14
2017-09-12T01:34:00.204Z,-4.14
2017-09-12T01:34:54.182Z,-4.14
2017-09-12T01:35:48.230Z,-4.14
2017-09-12T01:36:42.251Z,-4.14
2017-09-12T01:37:42.341Z,-4.14
2017-09-12T01:38:37.513Z,-4.14
2017-09-12T01:39:37.439Z,-4.14
2017-09-12T01:40:32.400Z,-4.14
2017-09-12T01:41:32.442Z,-4.14
2017-09-12T01:42:26.402Z,-4.14
2017-09-12T01:43:26.471Z,-4.14
2017-09-12T01:44:20.976Z,-4.14
2017-09-12T01:45:14.628Z,-4.14
2017-09-12T01:46:08.790Z,-4.14
2017-09-12T01:47:02.788Z,-4.14
2017-09-12T01:47:52.001Z,-4.14
2017-09-12T01:48:46.700Z,-4.14
2017-09-12T01:49:41.892Z,-4.14
2017-09-12T01:50:41.810Z,-4.14
2017-09-12T01:51:31.104Z,-4.14
2017-09-12T01:52:20.366Z,-4.14
2017-09-12T01:53:15.175Z,-4.14
2017-09-12T01:54:03.008Z,-4.14
2017-09-12T01:54:57.008Z,-4.14
2017-09-12T01:55:57.069Z,-4.14
2017-09-12T01:56:57.105Z,-4.14
2017-09-12T01:57:51.120Z,-4.14
2017-09-12T01:58:46.361Z,-4.14
2017-09-12T01:59:46.196Z,-4.14
2017-09-12T02:00:40.243Z,-4.14
2017-09-12T02:01:40.272Z,-4.14
2017-09-12T02:02:34.334Z,-4.14
2017-09-12T02:03:28.357Z,-4.14
2017-09-12T02:04:22.399Z,-4.14
2017-09-12T02:05:11.442Z,-4.14
2017-09-12T02:06:06.519Z,-4.14
2017-09-12T02:07:00.622Z,-4.14
2017-09-12T02:08:00.630Z,-4.14
2017-09-12T02:08:54.579Z,-4.14
2017-09-12T02:09:54.720Z,-4.14
2017-09-12T02:10:49.608Z,-4.14
2017-09-12T02:11:50.345Z,-4.14
2017-09-12T02:12:43.677Z,-4.14
2017-09-12T02:13:44.770Z,-4.14
2017-09-12T02:14:32.904Z,-4.14
2017-09-12T02:15:32.795Z,-4.14
2017-09-12T02:16:21.955Z,-4.14
2017-09-12T02:17:16.076Z,-4.14
2017-09-12T02:18:17.071Z,-4.14
2017-09-12T02:19:10.943Z,-4.14
2017-09-12T02:20:05.063Z,-4.14
2017-09-12T02:21:00.014Z,-4.14
2017-09-12T02:21:54.103Z,-4.14
2017-09-12T02:22:48.321Z,-4.14
2017-09-12T02:23:48.177Z,-4.14
2017-09-12T02:24:42.172Z,-4.14
2017-09-12T02:25:36.211Z,-4.14
2017-09-12T02:26:30.292Z,-4.14
2017-09-12T02:27:25.283Z,-4.14
2017-09-12T02:28:19.758Z,-4.14
2017-09-12T02:29:13.431Z,-4.14
2017-09-12T02:30:08.349Z,-4.14
2017-09-12T02:31:08.528Z,-4.14
2017-09-12T02:31:57.428Z,-4.14
2017-09-12T02:32:57.544Z,-4.14
2017-09-12T02:33:45.693Z,-4.14
2017-09-12T02:34:33.569Z,-4.14
2017-09-12T02:35:27.649Z,-4.14
2017-09-12T02:36:16.753Z,-4.14
2017-09-12T02:37:11.181Z,-4.14
2017-09-12T02:38:04.828Z,-4.14
2017-09-12T02:39:04.776Z,-4.14
2017-09-12T02:39:59.832Z,-4.14
2017-09-12T02:40:59.895Z,-4.14
2017-09-12T02:41:55.194Z,-4.14
2017-09-12T02:42:54.977Z,-4.14
2017-09-12T02:43:49.003Z,-4.14
2017-09-12T02:44:50.136Z,-4.14
2017-09-12T02:45:45.203Z,-4.14
2017-09-12T02:46:45.099Z,-4.14
2017-09-12T02:47:39.123Z,-4.14
2017-09-12T02:48:28.183Z,-4.14
2017-09-12T02:49:28.156Z,-4.14
2017-09-12T02:50:28.316Z,-4.14
2017-09-12T02:51:22.253Z,-4.14
2017-09-12T02:52:16.762Z,-4.14
2017-09-12T02:53:10.364Z,-4.14
2017-09-12T02:54:05.629Z,-4.14
2017-09-12T02:55:00.434Z,-4.14
2017-09-12T02:55:49.427Z,-4.14
2017-09-12T02:56:44.644Z,-4.14
2017-09-12T02:57:39.653Z,-4.14
2017-09-12T02:58:28.596Z,-4.14
2017-09-12T02:59:22.705Z,-4.14
2017-09-12T03:00:17.969Z,-4.14
2017-09-12T03:01:17.703Z,-4.14
2017-09-12T03:02:13.090Z,-4.14
2017-09-12T03:03:07.731Z,-4.14
2017-09-12T03:04:02.809Z,-4.14
2017-09-12T03:05:03.073Z,-4.14
2017-09-12T03:05:52.046Z,-4.14
2017-09-12T03:06:41.301Z,-4.14
2017-09-12T03:07:34.914Z,-4.14
2017-09-12T03:08:29.296Z,-4.14
2017-09-12T03:09:17.069Z,-4.14
2017-09-12T03:10:11.108Z,-4.14
2017-09-12T03:11:11.293Z,-4.14
2017-09-12T03:12:05.161Z,-4.14
2017-09-12T03:13:00.147Z,-4.14
2017-09-12T03:13:54.215Z,-4.14
2017-09-12T03:14:48.539Z,-4.14
2017-09-12T03:15:42.574Z,-4.14
2017-09-12T03:16:48.931Z,-4.14
2017-09-12T03:17:37.526Z,-4.14
2017-09-12T03:18:38.693Z,-4.14
2017-09-12T03:19:27.403Z,-4.14
2017-09-12T03:20:21.709Z,-4.14
2017-09-12T03:21:16.726Z,-4.14
2017-09-12T03:22:05.768Z,-4.14
2017-09-12T03:23:05.898Z,-4.14
2017-09-12T03:23:54.696Z,-4.14
2017-09-12T03:24:54.665Z,-4.14
2017-09-12T03:25:48.734Z,-4.14
2017-09-12T03:26:48.860Z,-4.14
2017-09-12T03:27:42.795Z,-4.14
2017-09-12T03:28:42.904Z,-4.14
2017-09-12T03:29:42.800Z,-4.14
2017-09-12T03:30:43.911Z,-4.14
2017-09-12T03:31:38.182Z,-4.14
2017-09-12T03:32:38.933Z,-4.14
2017-09-12T03:33:40.170Z,-4.14
2017-09-12T03:34:34.320Z,-4.14
2017-09-12T03:35:29.008Z,-4.14
2017-09-12T03:36:24.227Z,-4.15
2017-09-12T03:37:24.063Z,-4.14
2017-09-12T03:38:18.147Z,-4.14
2017-09-12T03:39:12.493Z,-4.14
2017-09-12T03:40:12.286Z,-4.14
2017-09-12T03:41:07.441Z,-4.14
2017-09-12T03:41:55.651Z,-4.14
2017-09-12T03:42:56.266Z,-4.14
2017-09-12T03:43:56.436Z,-4.15
2017-09-12T03:44:51.424Z,-4.15
2017-09-12T03:45:45.510Z,-4.15
2017-09-12T03:46:39.889Z,-4.15
2017-09-12T03:47:34.496Z,-4.15
2017-09-12T03:48:35.528Z,-4.15
2017-09-12T03:49:29.640Z,-4.14
2017-09-12T03:50:23.573Z,-4.14
2017-09-12T03:51:18.792Z,-4.14
2017-09-12T03:52:13.063Z,-4.14
2017-09-12T03:53:06.680Z,-4.14
2017-09-12T03:54:00.841Z,-4.14
2017-09-12T03:54:50.021Z,-4.14
2017-09-12T03:55:43.838Z,-4.15
2017-09-12T03:56:39.411Z,-4.15
2017-09-12T03:57:32.988Z,-4.14
2017-09-12T03:58:33.118Z,-4.14
2017-09-12T03:59:27.027Z,-4.14
2017-09-12T04:00:21.149Z,-4.15
2017-09-12T04:01:16.130Z,-4.15
2017-09-12T04:02:05.078Z,-4.15
2017-09-12T04:02:59.176Z,-4.15
2017-09-12T04:03:48.208Z,-4.15
2017-09-12T04:04:37.219Z,-4.15
2017-09-12T04:05:26.252Z,-4.15
2017-09-12T04:06:26.558Z,-4.15
2017-09-12T04:07:14.681Z,-4.14
2017-09-12T04:08:08.304Z,-4.15
2017-09-12T04:09:02.407Z,-4.15
2017-09-12T04:09:56.617Z,-4.15
2017-09-12T04:10:45.568Z,-4.15
2017-09-12T04:11:33.668Z,-4.15
2017-09-12T04:12:27.806Z,-4.15
2017-09-12T04:13:16.623Z,-4.15
2017-09-12T04:14:11.704Z,-4.15
2017-09-12T04:15:00.741Z,-4.15
2017-09-12T04:15:56.038Z,-4.15
2017-09-12T04:16:55.893Z,-4.15
2017-09-12T04:17:49.851Z,-4.15
2017-09-12T04:18:43.843Z,-4.14
2017-09-12T04:19:37.948Z,-4.14
2017-09-12T04:20:32.148Z,-4.15
2017-09-12T04:21:26.213Z,-4.15
2017-09-12T04:22:25.978Z,-4.15
2017-09-12T04:23:21.293Z,-4.15
2017-09-12T04:24:22.108Z,-4.15
2017-09-12T04:25:11.245Z,-4.15
2017-09-12T04:25:59.182Z,-4.15
2017-09-12T04:26:53.581Z,-4.15
2017-09-12T04:27:53.484Z,-4.15
2017-09-12T04:28:47.222Z,-4.15
2017-09-12T04:29:42.214Z,-4.15
2017-09-12T04:30:31.561Z,-4.15
2017-09-12T04:31:25.688Z,-4.15
2017-09-12T04:32:20.409Z,-4.15
2017-09-12T04:33:14.421Z,-4.14
2017-09-12T04:34:08.503Z,-4.15
2017-09-12T04:35:08.603Z,-4.15
2017-09-12T04:36:08.550Z,-4.14
2017-09-12T04:37:02.647Z,-4.14
2017-09-12T04:37:56.661Z,-4.14
2017-09-12T04:38:51.658Z,-4.14
2017-09-12T04:39:40.645Z,-4.14
2017-09-12T04:40:34.736Z,-4.14
2017-09-12T04:41:35.235Z,-4.14
2017-09-12T04:42:29.779Z,-4.14
2017-09-12T04:43:29.896Z,-4.14
2017-09-12T04:44:23.950Z,-4.14
2017-09-12T04:45:24.985Z,-4.14
2017-09-12T04:46:20.294Z,-4.14
2017-09-12T04:47:13.989Z,-4.14
2017-09-12T04:48:02.997Z,-4.14
2017-09-12T04:48:57.087Z,-4.14
2017-09-12T04:49:45.099Z,-4.14
2017-09-12T04:50:40.216Z,-4.14
2017-09-12T04:51:34.515Z,-4.14
2017-09-12T04:52:23.546Z,-4.14
2017-09-12T04:53:18.353Z,-4.14
2017-09-12T04:54:06.352Z,-4.14
2017-09-12T04:54:55.339Z,-4.14
2017-09-12T04:55:49.523Z,-4.14
2017-09-12T04:56:44.456Z,-4.14
2017-09-12T04:57:38.504Z,-4.14
2017-09-12T04:58:32.565Z,-4.14
2017-09-12T04:59:26.650Z,-4.14
2017-09-12T05:00:21.540Z,-4.14
2017-09-12T05:01:09.699Z,-4.14
2017-09-12T05:02:04.672Z,-4.14
2017-09-12T05:03:04.773Z,-4.14
2017-09-12T05:03:58.789Z,-4.14
2017-09-12T05:04:52.738Z,-4.13
2017-09-12T05:05:47.845Z,-4.13
2017-09-12T05:06:43.196Z,-4.13
2017-09-12T05:07:30.861Z,-4.13
2017-09-12T05:08:25.033Z,-4.13
2017-09-12T05:09:12.968Z,-4.13
2017-09-12T05:10:08.041Z,-4.13
2017-09-12T05:10:57.132Z,-4.13
2017-09-12T05:11:57.422Z,-4.13
2017-09-12T05:12:51.157Z,-4.13
2017-09-12T05:13:46.160Z,-4.13
2017-09-12T05:14:35.198Z,-4.13
2017-09-12T05:15:30.212Z,-4.13
2017-09-12T05:16:30.693Z,-4.13
2017-09-12T05:17:30.590Z,-4.13
2017-09-12T05:18:25.359Z,-4.13
2017-09-12T05:19:19.432Z,-4.13
2017-09-12T05:20:14.865Z,-4.13
2017-09-12T05:21:03.463Z,-4.13
2017-09-12T05:21:58.535Z,-4.13
2017-09-12T05:22:52.869Z,-4.13
2017-09-12T05:23:41.596Z,-4.13
2017-09-12T05:24:36.614Z,-4.13
2017-09-12T05:25:31.701Z,-4.13
2017-09-12T05:26:19.669Z,-4.13
2017-09-12T05:27:20.746Z,-4.13
2017-09-12T05:28:21.145Z,-4.13
2017-09-12T05:29:15.803Z,-4.13
2017-09-12T05:30:15.950Z,-4.13
2017-09-12T05:31:09.851Z,-4.13
2017-09-12T05:32:03.869Z,-4.13
2017-09-12T05:32:57.926Z,-4.13
2017-09-12T05:33:52.287Z,-4.13
2017-09-12T05:34:51.993Z,-4.13
2017-09-12T05:35:46.213Z,-4.13
2017-09-12T05:36:47.126Z,-4.13
2017-09-12T05:37:41.203Z,-4.13
2017-09-12T05:38:30.406Z,-4.13
2017-09-12T05:39:18.241Z,-4.13
2017-09-12T05:40:13.712Z,-4.13
2017-09-12T05:41:07.357Z,-4.13
2017-09-12T05:42:01.451Z,-4.13
2017-09-12T05:42:49.396Z,-4.13
2017-09-12T05:43:37.444Z,-4.13
2017-09-12T05:44:37.496Z,-4.13
2017-09-12T05:45:31.763Z,-4.13
2017-09-12T05:46:31.917Z,-4.13
2017-09-12T05:47:20.623Z,-4.13
2017-09-12T05:48:08.615Z,-4.13
2017-09-12T05:49:03.635Z,-4.13
2017-09-12T05:50:04.713Z,-4.13
2017-09-12T05:51:04.729Z,-4.13
2017-09-12T05:51:53.808Z,-4.13
2017-09-12T05:52:54.826Z,-4.13
2017-09-12T05:53:56.257Z,-4.13
2017-09-12T05:54:43.881Z,-4.13
2017-09-12T05:55:38.983Z,-4.13
2017-09-12T05:56:34.338Z,-4.13
2017-09-12T05:57:34.131Z,-4.13
2017-09-12T05:58:29.034Z,-4.13
2017-09-12T05:59:23.136Z,-4.13
2017-09-12T06:00:11.160Z,-4.13
2017-09-12T06:01:06.188Z,-4.13
2017-09-12T06:02:00.179Z,-4.13
2017-09-12T06:02:49.364Z,-4.13
2017-09-12T06:03:55.354Z,-4.13
2017-09-12T06:04:49.284Z,-4.13
2017-09-12T06:05:43.363Z,-4.13
2017-09-12T06:06:37.693Z,-4.13
2017-09-12T06:07:37.440Z,-4.13
2017-09-12T06:08:31.452Z,-4.13
2017-09-12T06:09:26.536Z,-4.13
2017-09-12T06:10:26.576Z,-4.13
2017-09-12T06:11:20.589Z,-4.13
2017-09-12T06:12:20.641Z,-4.13
2017-09-12T06:13:15.617Z,-4.13
2017-09-12T06:14:15.978Z,-4.13
2017-09-12T06:15:10.803Z,-4.13
2017-09-12T06:16:04.767Z,-4.13
2017-09-12T06:17:04.846Z,-4.13
2017-09-12T06:17:58.852Z,-4.13
2017-09-12T06:18:58.852Z,-4.13
2017-09-12T06:19:53.919Z,-4.13
2017-09-12T06:20:49.250Z,-4.13
2017-09-12T06:21:42.918Z,-4.13
2017-09-12T06:22:37.047Z,-4.13
2017-09-12T06:23:25.127Z,-4.13
2017-09-12T06:24:19.086Z,-4.13
2017-09-12T06:25:07.219Z,-4.13
2017-09-12T06:26:02.248Z,-4.13
2017-09-12T06:27:03.207Z,-4.13
2017-09-12T06:28:04.319Z,-4.13
2017-09-12T06:28:58.394Z,-4.13
2017-09-12T06:29:47.327Z,-4.13
2017-09-12T06:30:41.431Z,-4.13
2017-09-12T06:31:36.744Z,-4.13
2017-09-12T06:32:30.586Z,-4.13
2017-09-12T06:33:24.674Z,-4.13
2017-09-12T06:34:19.589Z,-4.13
2017-09-12T06:35:15.004Z,-4.13
2017-09-12T06:36:08.530Z,-4.13
2017-09-12T06:37:01.739Z,-4.13
2017-09-12T06:37:55.730Z,-4.13
2017-09-12T06:38:49.794Z,-4.13
2017-09-12T06:39:44.869Z,-4.13
2017-09-12T06:40:45.819Z,-4.13
2017-09-12T06:41:45.750Z,-4.13
2017-09-12T06:42:39.857Z,-4.13
2017-09-12T06:43:39.929Z,-4.13
2017-09-12T06:44:33.981Z,-4.13
2017-09-12T06:45:34.993Z,-4.13
2017-09-12T06:46:29.170Z,-4.13
2017-09-12T06:47:17.291Z,-4.13
2017-09-12T06:48:12.580Z,-4.13
2017-09-12T06:49:12.257Z,-4.13
2017-09-12T06:50:06.332Z,-4.13
2017-09-12T06:51:06.296Z,-4.13
2017-09-12T06:51:55.275Z,-4.13
2017-09-12T06:52:50.360Z,-4.13
2017-09-12T06:53:50.323Z,-4.13
2017-09-12T06:54:38.477Z,-4.13
2017-09-12T06:55:38.527Z,-4.13
2017-09-12T06:56:32.873Z,-4.13
2017-09-12T06:57:26.573Z,-4.13
2017-09-12T06:58:21.921Z,-4.13
2017-09-12T06:59:15.641Z,-4.13
2017-09-12T07:00:09.649Z,-4.13
2017-09-12T07:00:58.782Z,-4.13
2017-09-12T07:01:52.693Z,-4.13
2017-09-12T07:02:41.828Z,-4.13
2017-09-12T07:03:29.776Z,-4.13
2017-09-12T07:04:24.903Z,-4.13
2017-09-12T07:05:19.908Z,-4.13
2017-09-12T07:06:13.943Z,-4.13
2017-09-12T07:07:08.332Z,-4.13
2017-09-12T07:07:57.009Z,-4.13
2017-09-12T07:08:46.040Z,-4.13
2017-09-12T07:09:40.112Z,-4.13
2017-09-12T07:10:40.222Z,-4.13
2017-09-12T07:11:29.181Z,-4.13
2017-09-12T07:12:24.189Z,-4.13
2017-09-12T07:13:19.319Z,-4.13
2017-09-12T07:14:19.370Z,-4.13
2017-09-12T07:15:13.376Z,-4.13
2017-09-12T07:16:08.363Z,-4.13
2017-09-12T07:17:02.481Z,-4.13
2017-09-12T07:17:51.463Z,-4.13
2017-09-12T07:18:52.496Z,-4.13
2017-09-12T07:19:40.758Z,-4.13
2017-09-12T07:20:34.695Z,-4.13
2017-09-12T07:21:28.603Z,-4.13
2017-09-12T07:22:17.673Z,-4.13
2017-09-12T07:23:12.153Z,-4.13
2017-09-12T07:24:12.139Z,-4.13
2017-09-12T07:25:00.812Z,-4.13
2017-09-12T07:25:54.810Z,-4.13
2017-09-12T07:26:49.868Z,-4.13
2017-09-12T07:27:44.894Z,-4.13
2017-09-12T07:28:46.267Z,-4.13
2017-09-12T07:29:35.373Z,-4.13
2017-09-12T07:30:29.152Z,-4.13
2017-09-12T07:31:18.071Z,-4.13
2017-09-12T07:32:19.138Z,-4.13
2017-09-12T07:33:07.197Z,-4.13
2017-09-12T07:34:02.589Z,-4.13
2017-09-12T07:34:56.345Z,-4.13
2017-09-12T07:35:45.344Z,-4.13
2017-09-12T07:36:45.356Z,-4.13
2017-09-12T07:37:45.416Z,-4.13
2017-09-12T07:38:34.605Z,-4.13
2017-09-12T07:39:28.820Z,-4.13
2017-09-12T07:40:28.593Z,-4.13
2017-09-12T07:41:28.750Z,-4.13
2017-09-12T07:42:22.634Z,-4.13
2017-09-12T07:43:16.590Z,-4.13
2017-09-12T07:44:11.064Z,-4.13
2017-09-12T07:45:04.860Z,-4.13
2017-09-12T07:45:58.928Z,-4.13
2017-09-12T07:46:59.874Z,-4.13
2017-09-12T07:47:53.804Z,-4.13
2017-09-12T07:48:42.150Z,-4.13
2017-09-12T07:49:37.010Z,-4.13
2017-09-12T07:50:36.951Z,-4.13
2017-09-12T07:51:31.396Z,-4.13
2017-09-12T07:52:26.363Z,-4.13
2017-09-12T07:53:26.386Z,-4.13
2017-09-12T07:54:20.470Z,-4.13
2017-09-12T07:55:15.504Z,-4.13
2017-09-12T07:56:10.583Z,-4.13
2017-09-12T07:56:59.541Z,-4.13
2017-09-12T07:57:47.639Z,-4.13
2017-09-12T07:58:36.625Z,-4.13
2017-09-12T07:59:36.351Z,-4.13
2017-09-12T08:00:24.445Z,-4.13
2017-09-12T08:01:18.639Z,-4.13
2017-09-12T08:02:12.567Z,-4.13
2017-09-12T08:03:01.579Z,-4.13
2017-09-12T08:03:55.955Z,-4.13
2017-09-12T08:04:49.924Z,-4.13
2017-09-12T08:05:49.673Z,-4.13
2017-09-12T08:06:43.782Z,-4.13
2017-09-12T08:07:43.754Z,-4.13
2017-09-12T08:08:39.114Z,-4.13
2017-09-12T08:09:32.952Z,-4.12
2017-09-12T08:10:21.931Z,-4.12
2017-09-12T08:11:16.981Z,-4.12
2017-09-12T08:12:12.448Z,-4.12
2017-09-12T08:13:12.319Z,-4.10
2017-09-12T08:14:07.142Z,-4.09
2017-09-12T08:15:07.207Z,-4.09
2017-09-12T08:16:01.456Z,-4.09
2017-09-12T08:17:01.143Z,-4.09
2017-09-12T08:17:55.268Z,-4.09
2017-09-12T08:18:55.319Z,-4.09
2017-09-12T08:19:55.412Z,-4.09
2017-09-12T08:20:49.448Z,-4.08
2017-09-12T08:21:44.498Z,-4.09
2017-09-12T08:22:38.696Z,-4.09
2017-09-12T08:23:34.003Z,-4.08
2017-09-12T08:24:27.617Z,-4.08
2017-09-12T08:25:21.645Z,-4.08
2017-09-12T08:26:16.950Z,-4.09
2017-09-12T08:27:16.935Z,-4.10
2017-09-12T08:28:12.127Z,-4.10
2017-09-12T08:29:06.669Z,-4.11
2017-09-12T08:30:00.228Z,-4.11
2017-09-12T08:30:53.949Z,-4.11
2017-09-12T08:31:48.368Z,-4.11
2017-09-12T08:32:42.067Z,-4.11
2017-09-12T08:33:31.388Z,-4.11
2017-09-12T08:34:26.285Z,-4.11
2017-09-12T08:35:21.409Z,-4.11
2017-09-12T08:36:10.673Z,-4.11
2017-09-12T08:37:05.306Z,-4.11
2017-09-12T08:37:59.602Z,-4.11
2017-09-12T08:38:54.722Z,-4.10
2017-09-12T08:39:48.753Z,-4.10
2017-09-12T08:40:42.711Z,-4.09
2017-09-12T08:41:31.855Z,-4.08
2017-09-12T08:42:26.856Z,-4.08
2017-09-12T08:43:21.996Z,-4.08
2017-09-12T08:44:10.972Z,-4.08
2017-09-12T08:45:05.939Z,-4.08
2017-09-12T08:45:55.093Z,-4.08
2017-09-12T08:46:49.087Z,-4.07
2017-09-12T08:47:44.159Z,-4.07
2017-09-12T08:48:38.286Z,-4.07
2017-09-12T08:49:32.173Z,-4.07
2017-09-12T08:50:27.280Z,-4.06
2017-09-12T08:51:27.346Z,1.64
2017-09-12T08:52:21.362Z,15.42
2017-09-12T08:53:15.485Z,16.86
2017-09-12T08:54:03.523Z,12.56
2017-09-12T08:54:58.510Z,33.16
2017-09-12T08:55:53.653Z,29.70
2017-09-12T08:56:42.678Z,35.39
2017-09-12T08:57:36.774Z,43.58
2017-09-12T08:58:36.708Z,36.26
2017-09-12T08:59:36.869Z,42.38
2017-09-12T09:00:30.873Z,35.49
2017-09-12T09:01:19.897Z,38.26
2017-09-12T09:02:13.973Z,25.40
2017-09-12T09:03:09.032Z,22.28
2017-09-12T09:03:57.157Z,14.85
2017-09-12T09:04:46.159Z,17.43
2017-09-12T09:05:47.099Z,22.97
2017-09-12T09:06:42.167Z,20.45
2017-09-12T09:07:36.263Z,18.85
2017-09-12T09:08:36.359Z,16.07
2017-09-12T09:09:30.380Z,28.32
2017-09-12T09:10:30.450Z,34.44
2017-09-12T09:11:25.533Z,24.47
2017-09-12T09:12:19.918Z,38.73
2017-09-12T09:13:19.596Z,30.08
2017-09-12T09:14:14.651Z,35.50
2017-09-12T09:15:02.771Z,41.33
2017-09-12T09:15:57.754Z,26.83
2017-09-12T09:16:52.813Z,30.29
2017-09-12T09:17:47.200Z,34.41
2017-09-12T09:18:40.930Z,40.42
2017-09-12T09:19:35.947Z,37.54
2017-09-12T09:20:31.045Z,42.84
2017-09-12T09:21:19.056Z,37.95
2017-09-12T09:22:14.233Z,36.55
2017-09-12T09:23:15.235Z,40.16
2017-09-12T09:24:15.260Z,43.63
2017-09-12T09:25:09.361Z,46.41
2017-09-12T09:26:03.371Z,37.44
2017-09-12T09:26:57.424Z,29.09
2017-09-12T09:27:51.456Z,24.59
2017-09-12T09:28:40.577Z,21.43
2017-09-12T09:29:34.504Z,34.56
2017-09-12T09:30:29.844Z,35.82
2017-09-12T09:31:24.690Z,23.27
2017-09-12T09:32:18.869Z,25.11
2017-09-12T09:33:13.724Z,27.82
2017-09-12T09:34:07.795Z,27.35
2017-09-12T09:34:56.830Z,16.64
2017-09-12T09:35:52.159Z,15.96
2017-09-12T09:36:45.992Z,2.95
2017-09-12T09:37:35.051Z,-4.07
2017-09-12T09:38:30.287Z,14.79
2017-09-12T09:39:19.265Z,20.21
2017-09-12T09:40:13.232Z,15.51
2017-09-12T09:41:07.332Z,13.32
2017-09-12T09:42:01.316Z,24.51
2017-09-12T09:42:49.372Z,17.96
2017-09-12T09:43:44.508Z,16.17
2017-09-12T09:44:38.556Z,6.50
2017-09-12T09:45:38.501Z,-3.84
2017-09-12T09:46:33.464Z,-4.08
2017-09-12T09:47:33.369Z,-2.25
2017-09-12T09:48:33.584Z,-4.08
2017-09-12T09:49:22.380Z,-4.08
2017-09-12T09:50:22.635Z,1.78
2017-09-12T09:51:11.669Z,17.72
2017-09-12T09:52:11.659Z,9.50
2017-09-12T09:53:06.688Z,4.90
2017-09-12T09:53:55.688Z,6.44
2017-09-12T09:54:49.838Z,11.70
2017-09-12T09:55:38.857Z,0.53
2017-09-12T09:56:32.906Z,11.78
2017-09-12T09:57:33.018Z,11.03
2017-09-12T09:58:27.176Z,7.68
2017-09-12T09:59:21.190Z,-4.06
2017-09-12T10:00:21.334Z,26.03
2017-09-12T10:01:10.399Z,27.63
2017-09-12T10:02:04.420Z,29.35
2017-09-12T10:03:04.530Z,31.58
2017-09-12T10:04:04.572Z,23.26
2017-09-12T10:04:58.557Z,31.42
2017-09-12T10:05:52.658Z,43.85
2017-09-12T10:06:46.828Z,33.64
2017-09-12T10:07:34.723Z,35.90
2017-09-12T10:08:34.847Z,40.94
2017-09-12T10:09:28.844Z,28.17
2017-09-12T10:10:29.598Z,12.81
2017-09-12T10:11:23.858Z,2.02
2017-09-12T10:12:18.857Z,20.78
2017-09-12T10:13:07.882Z,16.60
2017-09-12T10:14:01.795Z,30.09
2017-09-12T10:14:50.963Z,40.96
2017-09-12T10:15:45.164Z,27.84
2017-09-12T10:16:34.189Z,38.36
2017-09-12T10:17:29.310Z,48.25
2017-09-12T10:18:24.476Z,46.21
2017-09-12T10:19:24.498Z,44.76
2017-09-12T10:20:19.486Z,35.55
2017-09-12T10:21:13.532Z,32.21
2017-09-12T10:22:13.646Z,33.90
2017-09-12T10:23:07.864Z,18.71
2017-09-12T10:24:07.694Z,22.54
2017-09-12T10:25:02.799Z,35.22
2017-09-12T10:25:51.815Z,34.34
2017-09-12T10:26:45.802Z,42.15
2017-09-12T10:27:40.899Z,45.40
2017-09-12T10:28:36.277Z,46.75
2017-09-12T10:29:25.102Z,47.58
2017-09-12T10:30:20.045Z,47.15
2017-09-12T10:31:14.177Z,46.41
2017-09-12T10:32:01.875Z,50.58
2017-09-12T10:32:51.154Z,50.74
2017-09-12T10:33:46.225Z,50.37
2017-09-12T10:34:40.311Z,49.69
2017-09-12T10:35:34.352Z,46.70
2017-09-12T10:36:28.489Z,49.60
2017-09-12T10:37:23.340Z,49.32
2017-09-12T10:38:17.429Z,48.34
2017-09-12T10:39:06.739Z,49.61
2017-09-12T10:40:00.555Z,48.06
2017-09-12T10:40:49.367Z,51.59
2017-09-12T10:41:43.308Z,48.64
2017-09-12T10:42:32.718Z,46.43
2017-09-12T10:43:32.637Z,39.55
2017-09-12T10:44:27.669Z,43.46
2017-09-12T10:45:16.974Z,36.94
2017-09-12T10:46:11.673Z,31.64
2017-09-12T10:47:05.923Z,17.96
2017-09-12T10:48:00.413Z,28.16
2017-09-12T10:48:54.761Z,27.94
2017-09-12T10:49:44.219Z,40.93
2017-09-12T10:50:38.198Z,29.36
2017-09-12T10:51:32.963Z,26.52
2017-09-12T10:52:28.126Z,41.37
2017-09-12T10:53:23.320Z,41.47
2017-09-12T10:54:17.212Z,47.27
2017-09-12T10:55:18.538Z,48.51
2017-09-12T10:56:18.252Z,51.29
2017-09-12T10:57:12.864Z,47.36
2017-09-12T10:58:07.285Z,50.00
2017-09-12T10:59:07.381Z,42.17
2017-09-12T11:00:02.411Z,35.88
2017-09-12T11:00:57.566Z,42.74
2017-09-12T11:01:51.792Z,40.38
2017-09-12T11:02:39.783Z,28.49
2017-09-12T11:03:28.639Z,29.44
2017-09-12T11:04:23.859Z,19.46
2017-09-12T11:05:23.907Z,42.99
2017-09-12T11:06:18.905Z,30.43
2017-09-12T11:07:13.161Z,32.96
2017-09-12T11:08:13.203Z,34.45
2017-09-12T11:09:02.057Z,17.87
2017-09-12T11:09:56.362Z,3.77
2017-09-12T11:10:51.125Z,8.27
2017-09-12T11:11:45.409Z,19.24
2017-09-12T11:12:40.161Z,16.20
2017-09-12T11:13:34.203Z,21.37
2017-09-12T11:14:29.232Z,38.41
2017-09-12T11:15:18.241Z,42.22
2017-09-12T11:16:07.873Z,45.72
2017-09-12T11:17:01.799Z,49.19
2017-09-12T11:18:01.705Z,45.76
2017-09-12T11:18:55.719Z,51.61
2017-09-12T11:19:55.980Z,49.27
2017-09-12T11:20:43.926Z,51.51
2017-09-12T11:21:38.082Z,51.66
2017-09-12T11:22:32.244Z,49.58
2017-09-12T11:23:26.115Z,50.20
2017-09-12T11:24:20.140Z,50.65
2017-09-12T11:25:14.115Z,51.23
2017-09-12T11:26:03.227Z,51.21
2017-09-12T11:26:51.231Z,51.91
2017-09-12T11:27:46.457Z,50.92
2017-09-12T11:28:40.473Z,51.52
2017-09-12T11:29:29.395Z,51.01
2017-09-12T11:30:18.505Z,50.69
2017-09-12T11:31:12.616Z,50.94
2017-09-12T11:32:06.628Z,50.78
2017-09-12T11:32:55.717Z,50.65
2017-09-12T11:33:43.766Z,51.51
2017-09-12T11:34:43.826Z,52.06
2017-09-12T11:35:37.869Z,51.76
2017-09-12T11:36:38.097Z,51.77
2017-09-12T11:37:31.955Z,50.73
2017-09-12T11:38:25.961Z,51.05
2017-09-12T11:39:20.014Z,50.24
2017-09-12T11:40:14.209Z,51.88
2017-09-12T11:41:03.183Z,52.95
2017-09-12T11:41:57.238Z,51.70
2017-09-12T11:42:51.220Z,51.38